KERO2: Robert S. Kerr Lock & Dam & Reservoir (L&D 15)

Data processed at Fri Jan 05 2018 23:03


All information presented herein is the property of the government of the United States of America and may be revised or deleted at any time without prior notice.
Dissemination of this information without the expressed written consent of the Public Affairs Office, Tulsa District U.S. Army Corps of Engineers is strictly prohibited.
These data are gathered electronically and, as presented, have not undergone any form of quality control. These data are not guaranteed to be valid or correct.
Go to home page.
Go to station list.

Upstream stations:

Downstream station:
Previous Day
Next Day
Current Day
    
SHEF ID:       KERO2     Robert S. Kerr Lock & Dam
STATION TYPE:  NAVIGATION LOCK
Normal Pool:  Bottom =   458.00, Top =   460.00

               PRECIP ELEVATION   STORAGE   TW-ELEV    INFLOW   RELEASE  AIR-TEMP  WIND-DIRWIND-SPEED REL-HUMID SOLAR-RAD   VOLTAGE  BAT-LOAD
                   in        ft     ac-ft        ft       cfs       cfs         F       deg       mph         %      W/m2      volt      volt
              Ccp-Rev   Ccp-Rev   Ccp-Rev   Ccp-Rev  Regi-Rev  Regi-Rev   Ccp-Rev   Ccp-Rev   Ccp-Rev   Ccp-Rev   Ccp-Rev   Ccp-Rev   Ccp-Rev
(US/Central)
01/03 00:00      0.00    459.79    516639    412.34      8692         0     23.65    222.20      9.95     45.99      0.00     13.80     13.30
01/03 01:00      0.00    459.75    514915    412.36      5910         0     23.65    226.40      9.63     57.35      0.00     13.82     13.36
01/03 02:00      0.00    459.68    511898    412.37      2086         0     21.00    262.60      9.02     60.58      0.00     13.83     13.36
01/03 03:00      0.00    459.73    514053    412.26      4694         0     20.23    289.60      4.01     59.16      0.00     13.85     13.42
01/03 04:00      0.00    459.76    515346    412.41      4501         0     20.98    205.30      2.44     66.91      0.00     13.85     13.42
01/03 05:00      0.00    459.79    516639    412.36      4482         0     20.88    192.50      4.66     70.76      0.00     13.82     13.42
01/03 06:00      0.00    459.57    507157    413.35      4464         0     20.01    197.40      6.54     68.99      0.00     13.83     13.36
01/03 07:00      0.00    459.67    511467    414.79      4601     31150     19.67    193.30      6.24     70.52      0.00     13.82     13.36
01/03 08:00      0.00    459.68    511898    414.39      1958     31150     20.77    197.60      6.81     70.64      9.00     13.83     13.30
01/03 09:00      0.00    459.58    507588    412.74      3715     14000     22.08    245.00      7.52     66.12    153.00     13.83     13.36
01/03 10:00      0.00    459.65    510605    411.90      3386      6500     24.40    236.60     11.18     60.01    340.00     13.85     13.36
01/03 11:00      0.00    459.67    511467    411.76     10358         0     26.49    252.00     10.47     57.16    497.00     13.82     13.42
01/03 12:00      0.00    459.67    511467    412.37     17174         0     29.70    234.90     12.07     55.51    599.00     13.81     13.36
01/03 13:00      0.00    459.74    514484    412.00     16707         0     33.75    240.10     10.65     46.90    636.00     13.83     13.36
01/03 14:00      0.00    459.81    517501    412.23     14639         0     34.41    245.50     12.34     47.39    554.00     13.83     13.42
01/03 15:00      0.00    459.83    518363    412.13     15350         0     35.83    286.30     11.21     40.36    466.00     13.83     13.48
01/03 16:00      0.00    459.83    518363    412.11      8759         0     36.18    290.90     11.48     40.85    338.00     13.83     13.48
01/03 17:00      0.00    459.72    513622    412.73      2169         0     34.86    283.70      8.49     45.80    144.00     13.81     13.42
01/03 18:00      0.00    459.74    514484    413.76      5251     16200     32.97    273.60      6.46     48.66      7.00     13.84     13.36
01/03 19:00      0.00    459.74    514484    414.44      5464     31150     31.64    272.30      4.89     53.54      0.00     13.85     13.42
01/03 20:00      0.00    459.71    513191    414.47      4753     31150     31.53    271.40      4.70     60.49      0.00     13.83     13.42
01/03 21:00      0.00    459.77    515777    414.32      4042     31150     30.76    268.70      6.01     56.28      0.00     13.83     13.36
01/03 22:00      0.00    459.73    514053    412.82      3332     14000     29.55    284.70      4.72     60.49      0.00     13.83     13.36
01/03 23:00      0.00    459.76    515346    412.11       231      6380     27.36    252.90      3.43     64.04      0.00     13.84     13.36